Terminal Aerodrome Forecast
Issued by NWS Burlington, VT

Home | Current Version | Previous Version | Text Only | Print | Product List | Glossary On
Versions: 1 2 3 4 5 6 7 8 9 10 11 12 13 14 15 16 17 18
238
FTUS41 KBTV 081121
TAFBTV
TAF
KBTV 081121Z 0812/0912 33004KT P6SM BKN130
     FM082300 03005KT P6SM VCSH BKN050
     FM090200 03005KT P6SM -SN OVC025=

USA.gov is the U.S. government's official web portal to all federal, state and local government web resources and services.